Latest Weather Observations for Coolangatta

IDN60801

Issued at 8:33 pm EDT Tuesday 27 February 2024 (issued every 10 minutes, with the page automatically refreshed every 10 minutes)

About weather observations | Map of weather stations | Latest weather observations for NSW | Other Formats
Station Details ID: 040717 Name: COOLANGATTA Lat: -28.17 Lon: 153.51 Height: 4.0 m
Data from the previous 72 hours. | See also: Recent months at Coolangatta

Observations at Coolangatta are collected in the Queensland time zone, which does not include daylight savings during the summer period. Therefore 'Rain since 9am' totals and other values are based on the Queensland time zone.

Date/Time
EDT
Temp
°C
App
Temp
°C
Dew
Point
°C
Rel
Hum
%
Delta-T
°C
Wind Press
QNH
hPa
Press
MSL
hPa
Rain since
9am
mm
Dir  Spd
km/h
Gust
km/h
Spd
kts
Gust
kts
27/08:30pm 24.4 26.6 20.3 78 2.7 S 9 9 5 5 1017.9 1017.8 1.0
27/08:00pm 24.6 26.7 20.1 76 2.9 SSE 9 13 5 7 1017.5 1017.4 1.0
27/07:30pm 25.2 26.6 19.6 71 3.6 SE 11 13 6 7 1017.1 1017.0 1.0
27/07:00pm 26.2 26.4 19.3 65 4.4 SE 17 22 9 12 1016.9 1016.8 1.0
27/06:30pm 27.0 26.9 19.9 65 4.6 SE 20 30 11 16 1016.5 1016.4 1.0
27/06:00pm 27.1 26.1 19.7 64 4.8 SE 24 32 13 17 1016.1 1016.0 1.0
27/05:30pm 27.9 27.5 21.0 66 4.6 SE 24 30 13 16 1016.0 1015.9 1.0
27/05:00pm 27.5 27.0 20.8 67 4.4 SSE 24 32 13 17 1016.1 1016.0 1.0
27/04:30pm 27.5 26.3 20.1 64 4.8 SE 26 33 14 18 1015.9 1015.8 1.0
27/04:00pm 27.3 26.7 20.4 66 4.5 SSE 24 32 13 17 1015.8 1015.7 1.0
27/03:30pm 27.4 26.4 20.5 66 4.5 SSE 26 35 14 19 1015.7 1015.6 1.0
27/03:00pm 27.4 26.4 21.2 69 4.1 SE 28 43 15 23 1015.7 1015.6 1.0
27/02:30pm 28.9 28.1 21.7 65 4.8 SE 28 37 15 20 1015.8 1015.7 1.0
27/02:00pm 29.2 28.7 21.4 63 5.2 SE 26 33 14 18 1015.7 1015.6 1.0
27/01:30pm 29.4 29.3 22.9 68 4.4 SE 28 33 15 18 1015.9 1015.8 1.0
27/01:00pm 29.5 29.9 22.5 66 4.8 SE 24 33 13 18 1016.0 1015.9 1.0
27/12:30pm 29.4 31.0 22.1 65 4.9 SSE 17 26 9 14 1016.2 1016.1 0.8
27/12:00pm 28.4 30.0 22.9 72 3.7 SSE 19 24 10 13 1016.4 1016.3 0.8
27/11:30am 27.8 28.8 22.1 71 3.8 SSE 20 28 11 15 1016.6 1016.5 0.8
27/11:00am 25.9 30.3 23.8 88 1.4 SSW 7 9 4 5 1016.8 1016.7 0.8
27/10:30am 28.2 29.3 22.0 69 4.2 SSE 19 26 10 14 1016.7 1016.6 0.0
27/10:00am 28.3 31.5 23.7 76 3.2 S 13 20 7 11 1016.7 1016.6 0.2
27/09:30am 27.8 32.5 25.0 85 2.0 SSW 9 13 5 7 1016.6 1016.5 0.2
27/09:00am 26.2 30.0 23.5 85 1.8 SSW 9 13 5 7 1016.3 1016.2 0.2
27/08:30am 26.9 31.7 24.5 87 1.7 SSW 7 9 4 5 1016.0 1015.9 0.2
27/08:00am 25.3 30.0 24.3 94 0.7 WSW 7 11 4 6 1015.7 1015.6 0.2
27/07:30am 24.2 28.8 24.2 100 0.0 SW 7 9 4 5 1015.2 1015.1 0.2
27/07:00am 23.2 27.4 23.2 100 0.0 WSW 6 9 3 5 1015.0 1014.9 0.2
27/06:30am 23.0 27.9 23.0 100 0.0 WSW 2 9 1 5 1014.6 1014.5 0.2
27/06:00am 23.3 27.6 23.3 100 0.0 SW 6 7 3 4 1014.3 1014.2 0.2
27/05:30am 23.2 27.3 23.2 100 0.0 SW 7 9 4 5 1014.2 1014.1 0.2
27/05:00am 23.6 28.0 23.4 99 0.1 SW 6 9 3 5 1014.1 1014.0 0.2
27/04:30am 23.5 28.9 23.3 99 0.1 CALM 0 0 0 0 1014.1 1014.0 0.2
27/04:00am 23.8 28.1 23.6 99 0.1 SW 7 9 4 5 1014.2 1014.1 0.2
27/03:30am 24.0 28.0 23.8 99 0.1 SW 9 11 5 6 1014.3 1014.2 0.2
27/03:00am 24.2 28.7 23.9 98 0.2 WSW 7 9 4 5 1014.4 1014.3 0.2
27/02:30am 24.3 28.5 24.1 99 0.1 SW 9 13 5 7 1014.6 1014.5 0.2
27/02:00am 24.4 28.8 24.4 100 0.0 WSW 9 13 5 7 1014.5 1014.4 0.2
27/01:30am 24.5 28.4 24.3 99 0.1 WSW 11 13 6 7 1014.7 1014.6 0.2
27/01:00am 24.8 29.6 24.1 96 0.5 SW 6 11 3 6 1014.8 1014.7 0.0
27/12:30am 25.0 29.4 23.8 93 0.8 WSW 7 11 4 6 1015.0 1014.9 0.0
27/12:00am 24.6 28.8 23.2 92 0.9 SW 6 7 3 4 1015.1 1015.0 0.0
 
Date/Time
EDT
Temp
°C
App
Temp
°C
Dew
Point
°C
Rel
Hum
%
Delta-T
°C
Wind Press
QNH
hPa
Press
MSL
hPa
Rain since
9am
mm
Dir  Spd
km/h
Gust
km/h
Spd
kts
Gust
kts
26/11:30pm 25.2 29.4 23.4 90 1.2 WSW 7 9 4 5 1014.9 1014.8 0.0
26/11:00pm 26.3 29.5 22.4 79 2.6 ENE 9 11 5 6 1014.8 1014.7 0.0
26/10:30pm 26.8 30.0 22.4 77 3.0 ENE 9 11 5 6 1014.9 1014.8 0.0
26/10:00pm 26.9 30.3 22.7 78 2.8 ENE 9 11 5 6 1014.7 1014.6 0.0
26/09:30pm 27.0 30.0 22.6 77 3.0 NE 11 13 6 7 1014.5 1014.4 0.0
26/09:00pm 27.0 29.8 23.0 79 2.7 ENE 13 17 7 9 1014.0 1013.9 0.0
26/08:30pm 27.0 30.2 23.0 79 2.7 ENE 11 15 6 8 1013.9 1013.8 0.0
26/08:00pm 27.2 30.4 23.0 78 2.9 ENE 11 15 6 8 1013.8 1013.7 0.0
26/07:30pm 27.1 29.5 22.9 78 2.9 ENE 15 19 8 10 1013.4 1013.3 0.0
26/07:00pm 27.3 30.2 23.1 78 2.9 ENE 13 17 7 9 1013.1 1013.0 0.0
26/06:30pm 27.5 30.1 23.3 78 2.9 ENE 15 20 8 11 1012.7 1012.6 0.0
26/06:00pm 28.4 30.7 23.5 75 3.4 ENE 17 20 9 11 1012.4 1012.3 0.0
26/05:30pm 28.4 30.9 23.1 73 3.6 ENE 15 20 8 11 1012.2 1012.1 0.0
26/05:00pm 28.9 31.3 23.6 73 3.6 ENE 17 24 9 13 1012.0 1011.9 0.0
26/04:30pm 29.4 31.4 23.6 71 4.0 ENE 19 24 10 13 1012.0 1011.9 0.0
26/04:00pm 28.8 31.0 23.2 71 3.8 NE 17 24 9 13 1012.1 1012.0 0.0
26/03:30pm 29.4 31.9 23.8 72 3.9 NE 17 22 9 12 1012.2 1012.1 0.0
26/03:00pm 29.2 30.6 22.9 69 4.3 NE 20 28 11 15 1012.4 1012.3 0.0
26/02:30pm 29.6 31.4 23.5 69 4.2 ENE 20 24 11 13 1012.8 1012.7 0.0
26/02:00pm 29.8 31.6 23.5 69 4.3 ENE 20 26 11 14 1013.1 1013.0 0.0
26/01:30pm 30.5 33.2 23.4 66 4.9 E 15 24 8 13 1013.5 1013.4 0.0
26/01:00pm 29.6 31.7 23.1 68 4.5 E 17 20 9 11 1013.9 1013.8 0.0
26/12:30pm 29.8 32.1 23.5 69 4.3 E 17 20 9 11 1013.9 1013.8 0.0
26/12:00pm 29.9 33.3 23.3 67 4.5 ESE 11 19 6 10 1014.0 1013.9 0.0
26/11:30am 29.6 33.2 22.3 65 4.9 ESE 7 11 4 6 1014.4 1014.3 0.0
26/11:00am 29.6 32.9 22.6 66 4.8 S 9 17 5 9 1014.5 1014.4 0.0
26/10:30am 28.6 30.9 22.1 68 4.4 S 13 19 7 10 1014.6 1014.5 0.0
26/10:00am 28.4 30.6 22.6 71 3.9 SSE 15 19 8 10 1014.6 1014.5 1.0
26/09:30am 28.0 30.6 22.7 73 3.6 SSE 13 19 7 10 1014.5 1014.4 1.0
26/09:00am 26.8 29.7 22.4 77 3.0 SSW 11 15 6 8 1014.4 1014.3 1.0
26/08:30am 26.2 29.6 22.7 81 2.4 SW 9 13 5 7 1014.3 1014.2 1.0
26/08:00am 25.4 28.9 22.9 86 1.7 SSW 9 13 5 7 1014.3 1014.2 1.0
26/07:30am 24.2 28.3 22.3 89 1.3 S 4 9 2 5 1014.1 1014.0 1.0
26/07:00am 23.3 26.9 22.3 94 0.7 SSW 7 7 4 4 1013.8 1013.7 1.0
26/06:30am 23.0 26.5 22.2 95 0.5 SSW 7 11 4 6 1013.5 1013.4 1.0
26/06:00am 22.7 26.1 22.0 96 0.5 S 7 9 4 5 1013.3 1013.2 1.0
26/05:30am 22.4 25.6 21.6 95 0.5 S 7 9 4 5 1013.1 1013.0 1.0
26/05:00am 22.9 26.1 21.7 93 0.8 SSW 7 9 4 5 1013.2 1013.1 1.0
26/04:30am 22.9 26.0 22.1 95 0.5 S 9 15 5 8 1013.1 1013.0 1.0
26/04:00am 22.8 26.3 22.1 96 0.5 SW 7 11 4 6 1013.0 1012.9 1.0
26/03:30am 23.2 25.9 22.2 94 0.7 SW 11 15 6 8 1013.0 1012.9 1.0
26/03:00am 23.3 26.6 22.5 95 0.5 SW 9 13 5 7 1013.1 1013.0 1.0
26/02:30am 23.5 26.5 22.7 95 0.5 WSW 11 15 6 8 1013.3 1013.2 1.0
26/02:00am 23.7 27.0 22.5 93 0.8 SSW 9 15 5 8 1013.6 1013.5 1.0
26/01:30am 23.7 25.8 22.5 93 0.8 SW 15 20 8 11 1013.8 1013.7 1.0
26/01:00am 23.7 26.2 22.5 93 0.8 SSW 13 19 7 10 1014.0 1013.9 1.0
26/12:30am 24.1 27.9 22.7 92 0.9 SSE 7 11 4 6 1014.2 1014.1 1.0
26/12:00am 23.9 27.8 22.5 92 0.9 SW 6 11 3 6 1014.1 1014.0 1.0
 
Date/Time
EDT
Temp
°C
App
Temp
°C
Dew
Point
°C
Rel
Hum
%
Delta-T
°C
Wind Press
QNH
hPa
Press
MSL
hPa
Rain since
9am
mm
Dir  Spd
km/h
Gust
km/h
Spd
kts
Gust
kts
25/11:30pm 23.6 27.4 22.4 93 0.8 WSW 6 9 3 5 1014.4 1014.3 1.0
25/11:00pm 23.7 27.7 22.7 94 0.7 SW 6 9 3 5 1014.6 1014.5 1.0
25/10:30pm 23.8 27.8 22.8 94 0.7 S 6 11 3 6 1014.6 1014.5 1.0
25/10:00pm 23.6 27.2 22.4 93 0.8 S 7 13 4 7 1014.6 1014.5 1.0
25/09:30pm 24.0 26.6 22.6 92 0.9 S 13 19 7 10 1014.5 1014.4 1.0
25/09:00pm 24.4 26.9 22.5 89 1.3 S 13 17 7 9 1014.1 1014.0 1.0
25/08:30pm 24.6 27.0 22.3 87 1.5 S 13 19 7 10 1013.8 1013.7 1.0
25/08:00pm 24.7 27.4 22.2 86 1.7 S 11 15 6 8 1013.6 1013.5 1.0
25/07:30pm 25.1 28.6 22.2 84 1.9 SSW 7 11 4 6 1013.3 1013.2 1.0
25/07:00pm 25.9 28.5 22.6 82 2.2 SSE 13 17 7 9 1013.1 1013.0 1.0
25/06:30pm 26.2 28.1 22.1 78 2.7 S 15 24 8 13 1012.7 1012.6 1.0
25/06:00pm 26.6 28.1 22.7 79 2.6 SSE 19 24 10 13 1012.4 1012.3 1.0
25/05:30pm 26.7 27.7 22.8 79 2.6 SSE 22 28 12 15 1012.2 1012.1 1.0
25/05:00pm 26.8 28.6 23.3 81 2.4 SE 19 24 10 13 1012.4 1012.3 1.0
25/04:30pm 27.9 28.4 21.9 70 4.0 SSE 22 30 12 16 1012.5 1012.4 1.0
25/04:00pm 28.8 29.1 22.3 68 4.4 SE 24 35 13 19 1012.4 1012.3 1.0
25/03:30pm 28.5 29.7 23.2 73 3.6 SSE 22 30 12 16 1012.5 1012.4 1.0
25/03:00pm 27.9 28.5 22.8 74 3.5 SE 24 33 13 18 1012.8 1012.7 1.0
25/02:30pm 28.6 31.0 24.6 79 2.8 SSE 20 30 11 16 1012.9 1012.8 1.0
25/02:11pm 27.5 30.5 24.7 85 1.9 SSE 17 28 9 15 1013.1 1013.0 1.0
25/02:00pm 26.4 29.9 24.8 91 1.1 SSE 15 20 8 11 1013.2 1013.1 1.0
25/01:57pm 26.0 28.4 24.2 90 1.2 SSE 19 30 10 16 1013.2 1013.1 1.0
25/01:30pm 29.9 32.1 23.3 67 4.5 S 17 26 9 14 1013.4 1013.3 0.2
25/01:00pm 29.5 31.4 23.4 69 4.2 SSW 19 33 10 18 1013.7 1013.6 0.2
25/12:30pm 29.5 31.5 23.9 72 3.9 S 20 28 11 15 1013.8 1013.7 0.0
25/12:00pm 27.4 29.4 23.0 77 3.0 S 17 24 9 13 1014.2 1014.1 0.0
25/11:30am 27.0 29.9 23.9 83 2.1 S 15 22 8 12 1014.6 1014.5 0.0
25/11:00am 26.4 28.7 23.5 84 2.0 SSW 17 20 9 11 1014.5 1014.4 0.0
25/10:30am 25.1 27.7 22.6 86 1.7 SSW 13 19 7 10 1014.6 1014.5 0.0
25/10:00am 24.4 26.3 22.7 90 1.1 S 17 24 9 13 1014.5 1014.4 3.0
25/09:30am 24.0 26.5 22.4 91 1.1 SSW 13 20 7 11 1014.6 1014.5 3.0
25/09:00am 24.0 27.2 23.0 94 0.7 SSW 11 15 6 8 1014.6 1014.5 3.0
25/08:30am 23.6 27.2 23.1 97 0.3 S 9 13 5 7 1014.6 1014.5 3.0
25/08:00am 23.4 26.4 22.7 96 0.5 SSW 11 15 6 8 1014.3 1014.2 3.0
25/07:30am 23.3 26.0 22.8 97 0.3 SSW 13 19 7 10 1014.1 1014.0 3.0
25/07:00am 23.1 26.2 22.8 98 0.2 SSW 11 17 6 9 1013.7 1013.6 3.0
25/06:30am 23.3 26.1 23.0 98 0.2 SSW 13 20 7 11 1013.6 1013.5 2.8
25/06:00am 23.3 26.5 23.0 98 0.2 SSW 11 15 6 8 1013.4 1013.3 2.8
25/05:30am 23.4 26.5 22.9 97 0.3 S 11 17 6 9 1013.1 1013.0 2.8
25/05:07am 23.4 25.8 22.9 97 0.3 SSW 15 20 8 11 1012.7 1012.6 2.8
25/05:00am 23.4 26.3 23.1 98 0.2 SSW 13 17 7 9 1012.8 1012.7 2.8
25/04:30am 23.4 27.0 23.1 98 0.2 SSW 9 13 5 7 1012.7 1012.6 2.8
25/04:21am 23.4 27.1 23.2 99 0.1 SW 9 13 5 7 1012.8 1012.7 2.8
25/04:00am 23.3 28.2 23.1 99 0.1 S 2 6 1 3 1012.5 1012.4 2.8
25/03:30am 23.5 27.2 23.2 98 0.2 SW 9 13 5 7 1012.5 1012.4 2.8
25/03:00am 23.5 26.9 23.3 99 0.1 SW 11 17 6 9 1012.9 1012.8 2.8
25/02:35am 23.4 27.6 23.4 100 0.0 W 7 9 4 5 1012.9 1012.8 2.6
25/02:30am 23.5 27.7 23.5 100 0.0 W 7 9 4 5 1013.0 1012.9 2.6
25/02:13am 23.5 27.9 23.5 100 0.0 WNW 6 7 3 4 1013.1 1013.0 2.6
25/02:00am 23.5 27.7 23.5 100 0.0 SW 7 11 4 6 1013.0 1012.9 2.6
25/01:30am 23.6 27.9 23.3 98 0.2 S 6 9 3 5 1013.4 1013.3 2.6
25/01:00am 23.6 28.3 23.4 99 0.1 SSW 4 7 2 4 1014.0 1013.9 2.2
25/12:30am 23.7 28.0 23.7 100 0.0 SSE 7 9 4 5 1014.1 1014.0 1.8
25/12:00am 23.6 27.9 23.3 98 0.2 SW 6 7 3 4 1014.1 1014.0 1.2
 
Date/Time
EDT
Temp
°C
App
Temp
°C
Dew
Point
°C
Rel
Hum
%
Delta-T
°C
Wind Press
QNH
hPa
Press
MSL
hPa
Rain since
9am
mm
Dir  Spd
km/h
Gust
km/h
Spd
kts
Gust
kts
24/11:30pm 23.5 27.6 23.2 98 0.2 WNW 7 11 4 6 1014.1 1014.0 1.0
24/11:00pm 23.8 28.7 23.1 96 0.5 SSW 2 7 1 4 1014.3 1014.2 1.0
24/10:30pm 23.7 27.2 22.9 95 0.5 SW 9 15 5 8 1014.1 1014.0 0.8
24/10:00pm 23.8 26.5 22.8 94 0.7 SSW 13 20 7 11 1014.0 1013.9 0.6

Other formats

Comma delimited format used in spreadsheet applications
http://www.bom.gov.au/fwo/IDN60801/IDN60801.94592.axf

JavaScript Object Notation format (JSON) in row-major order
http://www.bom.gov.au/fwo/IDN60801/IDN60801.94592.json

Data quality

Most of these data are generated automatically and are frequently updated. Quality checks on data are not normally performed. It is possible for incorrect values to appear. Refer to information at About Latest Weather Observations and please check the disclaimer before using these data.